DLS weather

Columbia Gorge Regional the Dalles Municipal Airport
The Dalles, Oregon, United States

Public forecast

Using degrees Fahrenheit for public forecast. Weather courtesy of forecast.io.

METAR (pilot weather report)

Retrieved 2019/05/27 11:53 UTC (39 minutes ago):

KDLS 271153Z AUTO 28004KT 10SM OVC120 16/11 A2990 RMK AO2 SLP126 60000 70007 T01560111 10167 20150 53009

TAF (pilot weather forecast)

Retrieved 2019/05/27 12:36 UTC (0 seconds ago):

TAF KDLS 271132Z 2712/2812 31011KT P6SM BKN100 FM272000 33012G25KT P6SM VCSH BKN080 FM280600 31014G20KT P6SM BKN100 FM281000 32014KT P6SM BKN250